sensor_id;sensor_type;location;lat;lon;timestamp;temperature;humidity
22089;DHT22;11211;52.728;9.230;2022-11-20T00:00:16;9.60;80.00
22089;DHT22;11211;52.728;9.230;2022-11-20T00:02:44;9.50;79.70
22089;DHT22;11211;52.728;9.230;2022-11-20T00:05:11;9.50;79.90
22089;DHT22;11211;52.728;9.230;2022-11-20T00:07:38;9.50;80.00
22089;DHT22;11211;52.728;9.230;2022-11-20T00:10:05;9.50;80.10
22089;DHT22;11211;52.728;9.230;2022-11-20T00:12:32;9.40;79.90
22089;DHT22;11211;52.728;9.230;2022-11-20T00:14:59;9.50;80.00
22089;DHT22;11211;52.728;9.230;2022-11-20T00:17:26;9.40;80.10
22089;DHT22;11211;52.728;9.230;2022-11-20T00:19:54;9.40;80.60
22089;DHT22;11211;52.728;9.230;2022-11-20T00:22:20;9.30;80.30
22089;DHT22;11211;52.728;9.230;2022-11-20T00:24:47;9.20;80.20
22089;DHT22;11211;52.728;9.230;2022-11-20T00:27:14;9.10;80.50
22089;DHT22;11211;52.728;9.230;2022-11-20T00:29:41;9.20;80.70
22089;DHT22;11211;52.728;9.230;2022-11-20T00:32:07;9.20;80.50
22089;DHT22;11211;52.728;9.230;2022-11-20T00:34:34;9.20;81.10
22089;DHT22;11211;52.728;9.230;2022-11-20T00:37:02;9.20;81.00
22089;DHT22;11211;52.728;9.230;2022-11-20T00:39:29;9.30;81.50
22089;DHT22;11211;52.728;9.230;2022-11-20T00:41:56;9.20;81.10
22089;DHT22;11211;52.728;9.230;2022-11-20T00:44:22;9.20;81.30
22089;DHT22;11211;52.728;9.230;2022-11-20T00:46:49;9.20;81.50
22089;DHT22;11211;52.728;9.230;2022-11-20T00:49:16;9.10;81.30
22089;DHT22;11211;52.728;9.230;2022-11-20T00:51:43;9.20;81.40
22089;DHT22;11211;52.728;9.230;2022-11-20T00:54:11;9.20;81.70
22089;DHT22;11211;52.728;9.230;2022-11-20T00:56:37;9.20;81.30
22089;DHT22;11211;52.728;9.230;2022-11-20T00:59:05;9.30;81.50
22089;DHT22;11211;52.728;9.230;2022-11-20T01:01:32;9.30;81.80
22089;DHT22;11211;52.728;9.230;2022-11-20T01:04:00;9.20;80.40
22089;DHT22;11211;52.728;9.230;2022-11-20T01:06:29;9.30;81.40
22089;DHT22;11211;52.728;9.230;2022-11-20T01:08:57;9.50;81.40
22089;DHT22;11211;52.728;9.230;2022-11-20T01:11:27;9.50;80.90
22089;DHT22;11211;52.728;9.230;2022-11-20T01:13:55;9.50;81.70
22089;DHT22;11211;52.728;9.230;2022-11-20T01:16:23;9.60;80.90
22089;DHT22;11211;52.728;9.230;2022-11-20T01:18:52;9.60;81.00
22089;DHT22;11211;52.728;9.230;2022-11-20T01:21:21;9.60;80.90
22089;DHT22;11211;52.728;9.230;2022-11-20T01:23:49;9.60;81.00
22089;DHT22;11211;52.728;9.230;2022-11-20T01:26:18;9.50;80.80
22089;DHT22;11211;52.728;9.230;2022-11-20T01:28:47;9.40;81.00
22089;DHT22;11211;52.728;9.230;2022-11-20T01:31:16;9.50;81.40
22089;DHT22;11211;52.728;9.230;2022-11-20T01:33:44;9.40;81.10
22089;DHT22;11211;52.728;9.230;2022-11-20T01:36:12;9.40;81.60
22089;DHT22;11211;52.728;9.230;2022-11-20T01:38:39;9.40;81.50
22089;DHT22;11211;52.728;9.230;2022-11-20T01:41:07;9.40;81.60
22089;DHT22;11211;52.728;9.230;2022-11-20T01:43:34;9.30;81.50
22089;DHT22;11211;52.728;9.230;2022-11-20T01:46:12;9.30;81.80
22089;DHT22;11211;52.728;9.230;2022-11-20T01:48:44;9.40;81.80
22089;DHT22;11211;52.728;9.230;2022-11-20T01:51:19;9.30;82.20
22089;DHT22;11211;52.728;9.230;2022-11-20T01:53:46;9.30;82.40
22089;DHT22;11211;52.728;9.230;2022-11-20T01:56:14;9.30;82.10
22089;DHT22;11211;52.728;9.230;2022-11-20T01:58:44;9.20;82.20
22089;DHT22;11211;52.728;9.230;2022-11-20T02:01:14;9.20;82.40
22089;DHT22;11211;52.728;9.230;2022-11-20T02:03:41;9.20;82.20
22089;DHT22;11211;52.728;9.230;2022-11-20T02:06:13;9.30;82.40
22089;DHT22;11211;52.728;9.230;2022-11-20T02:08:40;9.40;82.60
22089;DHT22;11211;52.728;9.230;2022-11-20T02:11:07;9.50;82.20
22089;DHT22;11211;52.728;9.230;2022-11-20T02:13:34;9.60;81.80
22089;DHT22;11211;52.728;9.230;2022-11-20T02:16:16;9.60;81.30
22089;DHT22;11211;52.728;9.230;2022-11-20T02:18:44;9.60;81.60
22089;DHT22;11211;52.728;9.230;2022-11-20T02:21:27;9.70;81.70
22089;DHT22;11211;52.728;9.230;2022-11-20T02:24:13;9.70;81.40
22089;DHT22;11211;52.728;9.230;2022-11-20T02:26:44;9.60;81.10
22089;DHT22;11211;52.728;9.230;2022-11-20T02:29:13;9.60;81.30
22089;DHT22;11211;52.728;9.230;2022-11-20T02:31:42;9.70;81.50
22089;DHT22;11211;52.728;9.230;2022-11-20T02:34:13;9.70;81.70
22089;DHT22;11211;52.728;9.230;2022-11-20T02:36:40;9.60;81.50
22089;DHT22;11211;52.728;9.230;2022-11-20T02:39:10;9.60;81.70
22089;DHT22;11211;52.728;9.230;2022-11-20T02:41:38;9.60;81.70
22089;DHT22;11211;52.728;9.230;2022-11-20T02:44:05;9.60;82.00
22089;DHT22;11211;52.728;9.230;2022-11-20T02:46:32;9.60;82.00
22089;DHT22;11211;52.728;9.230;2022-11-20T02:49:01;9.60;81.90
22089;DHT22;11211;52.728;9.230;2022-11-20T02:51:27;9.50;82.00
22089;DHT22;11211;52.728;9.230;2022-11-20T02:53:54;9.50;82.10
22089;DHT22;11211;52.728;9.230;2022-11-20T02:56:22;9.40;82.20
22089;DHT22;11211;52.728;9.230;2022-11-20T02:58:49;9.40;82.40
22089;DHT22;11211;52.728;9.230;2022-11-20T03:01:16;9.40;82.40
22089;DHT22;11211;52.728;9.230;2022-11-20T03:03:43;9.40;82.60
22089;DHT22;11211;52.728;9.230;2022-11-20T03:06:09;9.40;82.50
22089;DHT22;11211;52.728;9.230;2022-11-20T03:08:36;9.40;82.60
22089;DHT22;11211;52.728;9.230;2022-11-20T03:11:05;9.40;82.90
22089;DHT22;11211;52.728;9.230;2022-11-20T03:13:34;9.40;82.80
22089;DHT22;11211;52.728;9.230;2022-11-20T03:16:09;9.40;82.90
22089;DHT22;11211;52.728;9.230;2022-11-20T03:18:37;9.40;82.90
22089;DHT22;11211;52.728;9.230;2022-11-20T03:21:04;9.40;82.70
22089;DHT22;11211;52.728;9.230;2022-11-20T03:23:31;9.40;82.50
22089;DHT22;11211;52.728;9.230;2022-11-20T03:26:09;9.50;82.10
22089;DHT22;11211;52.728;9.230;2022-11-20T03:28:38;9.60;82.10
22089;DHT22;11211;52.728;9.230;2022-11-20T03:31:07;9.60;82.00
22089;DHT22;11211;52.728;9.230;2022-11-20T03:33:34;9.70;81.60
22089;DHT22;11211;52.728;9.230;2022-11-20T03:36:01;9.60;81.60
22089;DHT22;11211;52.728;9.230;2022-11-20T03:38:29;9.60;81.40
22089;DHT22;11211;52.728;9.230;2022-11-20T03:40:59;9.70;82.00
22089;DHT22;11211;52.728;9.230;2022-11-20T03:43:26;9.60;81.60
22089;DHT22;11211;52.728;9.230;2022-11-20T03:45:54;9.70;81.80
22089;DHT22;11211;52.728;9.230;2022-11-20T03:48:20;9.70;81.40
22089;DHT22;11211;52.728;9.230;2022-11-20T03:50:47;9.70;81.30
22089;DHT22;11211;52.728;9.230;2022-11-20T03:53:14;9.80;80.80
22089;DHT22;11211;52.728;9.230;2022-11-20T03:55:41;9.80;80.90
22089;DHT22;11211;52.728;9.230;2022-11-20T03:58:08;9.90;80.50
22089;DHT22;11211;52.728;9.230;2022-11-20T04:00:35;10.00;80.60
22089;DHT22;11211;52.728;9.230;2022-11-20T04:03:03;10.00;80.30
22089;DHT22;11211;52.728;9.230;2022-11-20T04:05:30;10.10;80.30
22089;DHT22;11211;52.728;9.230;2022-11-20T04:07:59;10.10;80.20
22089;DHT22;11211;52.728;9.230;2022-11-20T04:10:25;10.20;80.20
22089;DHT22;11211;52.728;9.230;2022-11-20T04:12:52;10.20;80.30
22089;DHT22;11211;52.728;9.230;2022-11-20T04:15:19;10.20;80.00
22089;DHT22;11211;52.728;9.230;2022-11-20T04:17:46;10.20;79.80
22089;DHT22;11211;52.728;9.230;2022-11-20T04:20:14;10.20;79.70
22089;DHT22;11211;52.728;9.230;2022-11-20T04:22:41;10.20;79.40
22089;DHT22;11211;52.728;9.230;2022-11-20T04:25:08;10.20;80.00
22089;DHT22;11211;52.728;9.230;2022-11-20T04:27:35;10.30;80.20
22089;DHT22;11211;52.728;9.230;2022-11-20T04:30:02;10.30;80.50
22089;DHT22;11211;52.728;9.230;2022-11-20T04:32:28;10.30;80.40
22089;DHT22;11211;52.728;9.230;2022-11-20T04:34:55;10.30;80.30
22089;DHT22;11211;52.728;9.230;2022-11-20T04:37:23;10.30;79.90
22089;DHT22;11211;52.728;9.230;2022-11-20T04:39:50;10.30;79.40
22089;DHT22;11211;52.728;9.230;2022-11-20T04:42:17;10.30;79.80
22089;DHT22;11211;52.728;9.230;2022-11-20T04:44:56;10.30;80.00
22089;DHT22;11211;52.728;9.230;2022-11-20T04:47:23;10.30;79.60
22089;DHT22;11211;52.728;9.230;2022-11-20T04:49:50;10.30;79.50
22089;DHT22;11211;52.728;9.230;2022-11-20T04:52:17;10.30;79.90
22089;DHT22;11211;52.728;9.230;2022-11-20T04:54:45;10.30;79.90
22089;DHT22;11211;52.728;9.230;2022-11-20T04:57:13;10.20;80.00
22089;DHT22;11211;52.728;9.230;2022-11-20T04:59:40;10.30;80.00
22089;DHT22;11211;52.728;9.230;2022-11-20T05:02:07;10.30;80.20
22089;DHT22;11211;52.728;9.230;2022-11-20T05:04:34;10.30;80.00
22089;DHT22;11211;52.728;9.230;2022-11-20T05:07:01;10.30;80.50
22089;DHT22;11211;52.728;9.230;2022-11-20T05:09:27;10.30;80.50
22089;DHT22;11211;52.728;9.230;2022-11-20T05:11:56;10.40;80.40
22089;DHT22;11211;52.728;9.230;2022-11-20T05:14:23;10.30;79.70
22089;DHT22;11211;52.728;9.230;2022-11-20T05:16:49;10.40;80.10
22089;DHT22;11211;52.728;9.230;2022-11-20T05:19:17;10.40;80.30
22089;DHT22;11211;52.728;9.230;2022-11-20T05:21:43;10.30;80.10
22089;DHT22;11211;52.728;9.230;2022-11-20T05:24:10;10.40;80.00
22089;DHT22;11211;52.728;9.230;2022-11-20T05:26:37;10.30;79.90
22089;DHT22;11211;52.728;9.230;2022-11-20T05:29:05;10.30;79.80
22089;DHT22;11211;52.728;9.230;2022-11-20T05:31:32;10.40;79.90
22089;DHT22;11211;52.728;9.230;2022-11-20T05:33:58;10.30;79.90
22089;DHT22;11211;52.728;9.230;2022-11-20T05:36:25;10.30;79.70
22089;DHT22;11211;52.728;9.230;2022-11-20T05:38:52;10.30;79.40
22089;DHT22;11211;52.728;9.230;2022-11-20T05:41:20;10.30;79.70
22089;DHT22;11211;52.728;9.230;2022-11-20T05:43:48;10.30;79.40
22089;DHT22;11211;52.728;9.230;2022-11-20T05:46:18;10.30;79.70
22089;DHT22;11211;52.728;9.230;2022-11-20T05:48:46;10.30;80.00
22089;DHT22;11211;52.728;9.230;2022-11-20T05:51:14;10.20;80.10
22089;DHT22;11211;52.728;9.230;2022-11-20T05:53:42;10.30;80.20
22089;DHT22;11211;52.728;9.230;2022-11-20T05:56:11;10.20;80.20
22089;DHT22;11211;52.728;9.230;2022-11-20T05:58:38;10.30;80.20
22089;DHT22;11211;52.728;9.230;2022-11-20T06:01:08;10.30;80.40
22089;DHT22;11211;52.728;9.230;2022-11-20T06:03:37;10.30;80.30
22089;DHT22;11211;52.728;9.230;2022-11-20T06:06:05;10.30;80.20
22089;DHT22;11211;52.728;9.230;2022-11-20T06:08:32;10.20;80.40
22089;DHT22;11211;52.728;9.230;2022-11-20T06:11:04;10.20;80.00
22089;DHT22;11211;52.728;9.230;2022-11-20T06:13:31;10.30;80.20
22089;DHT22;11211;52.728;9.230;2022-11-20T06:15:58;10.30;80.30
22089;DHT22;11211;52.728;9.230;2022-11-20T06:18:25;10.20;80.70
22089;DHT22;11211;52.728;9.230;2022-11-20T06:21:00;10.10;80.60
22089;DHT22;11211;52.728;9.230;2022-11-20T06:23:29;10.10;80.80
22089;DHT22;11211;52.728;9.230;2022-11-20T06:25:55;10.10;81.10
22089;DHT22;11211;52.728;9.230;2022-11-20T06:28:22;10.10;81.40
22089;DHT22;11211;52.728;9.230;2022-11-20T06:30:49;10.00;81.30
22089;DHT22;11211;52.728;9.230;2022-11-20T06:33:15;10.00;81.70
22089;DHT22;11211;52.728;9.230;2022-11-20T06:35:42;10.00;81.90
22089;DHT22;11211;52.728;9.230;2022-11-20T06:38:10;9.80;82.10
22089;DHT22;11211;52.728;9.230;2022-11-20T06:40:39;9.90;82.20
22089;DHT22;11211;52.728;9.230;2022-11-20T06:43:06;9.90;81.30
22089;DHT22;11211;52.728;9.230;2022-11-20T06:45:33;10.00;81.00
22089;DHT22;11211;52.728;9.230;2022-11-20T06:48:00;10.10;81.10
22089;DHT22;11211;52.728;9.230;2022-11-20T06:50:27;10.10;80.80
22089;DHT22;11211;52.728;9.230;2022-11-20T06:52:53;10.10;80.70
22089;DHT22;11211;52.728;9.230;2022-11-20T06:55:22;10.10;80.50
22089;DHT22;11211;52.728;9.230;2022-11-20T06:57:50;10.20;80.60
22089;DHT22;11211;52.728;9.230;2022-11-20T07:00:17;10.10;81.10
22089;DHT22;11211;52.728;9.230;2022-11-20T07:02:44;10.10;81.50
22089;DHT22;11211;52.728;9.230;2022-11-20T07:05:10;10.10;80.80
22089;DHT22;11211;52.728;9.230;2022-11-20T07:07:37;10.00;80.90
22089;DHT22;11211;52.728;9.230;2022-11-20T07:10:05;9.90;81.00
22089;DHT22;11211;52.728;9.230;2022-11-20T07:12:33;9.90;81.20
22089;DHT22;11211;52.728;9.230;2022-11-20T07:15:00;10.00;81.10
22089;DHT22;11211;52.728;9.230;2022-11-20T07:17:27;10.00;80.80
22089;DHT22;11211;52.728;9.230;2022-11-20T07:19:54;10.00;80.40
22089;DHT22;11211;52.728;9.230;2022-11-20T07:22:20;10.10;79.80
22089;DHT22;11211;52.728;9.230;2022-11-20T07:24:48;10.10;80.00
22089;DHT22;11211;52.728;9.230;2022-11-20T07:27:14;10.20;80.20
22089;DHT22;11211;52.728;9.230;2022-11-20T07:29:43;10.20;79.90
22089;DHT22;11211;52.728;9.230;2022-11-20T07:32:10;10.30;80.30
22089;DHT22;11211;52.728;9.230;2022-11-20T07:34:36;10.30;80.80
22089;DHT22;11211;52.728;9.230;2022-11-20T07:37:03;10.40;80.70
22089;DHT22;11211;52.728;9.230;2022-11-20T07:39:30;10.40;81.10
22089;DHT22;11211;52.728;9.230;2022-11-20T07:41:57;10.40;80.80
22089;DHT22;11211;52.728;9.230;2022-11-20T07:44:24;10.40;81.10
22089;DHT22;11211;52.728;9.230;2022-11-20T07:46:52;10.40;80.70
22089;DHT22;11211;52.728;9.230;2022-11-20T07:49:19;10.30;80.40
22089;DHT22;11211;52.728;9.230;2022-11-20T07:51:45;10.20;80.80
22089;DHT22;11211;52.728;9.230;2022-11-20T07:54:12;10.20;80.90
22089;DHT22;11211;52.728;9.230;2022-11-20T07:56:39;10.20;81.10
22089;DHT22;11211;52.728;9.230;2022-11-20T07:59:06;10.20;81.00
22089;DHT22;11211;52.728;9.230;2022-11-20T08:01:32;10.30;80.50
22089;DHT22;11211;52.728;9.230;2022-11-20T08:04:00;10.30;80.20
22089;DHT22;11211;52.728;9.230;2022-11-20T08:06:27;10.40;80.40
22089;DHT22;11211;52.728;9.230;2022-11-20T08:08:54;10.40;80.30
22089;DHT22;11211;52.728;9.230;2022-11-20T08:11:21;10.40;80.40
22089;DHT22;11211;52.728;9.230;2022-11-20T08:14:17;10.50;80.90
22089;DHT22;11211;52.728;9.230;2022-11-20T08:16:45;10.50;81.20
22089;DHT22;11211;52.728;9.230;2022-11-20T08:19:15;10.40;80.40
22089;DHT22;11211;52.728;9.230;2022-11-20T08:21:42;10.30;80.40
22089;DHT22;11211;52.728;9.230;2022-11-20T08:24:10;10.30;80.20
22089;DHT22;11211;52.728;9.230;2022-11-20T08:26:38;10.30;80.00
22089;DHT22;11211;52.728;9.230;2022-11-20T08:29:05;10.30;79.90
22089;DHT22;11211;52.728;9.230;2022-11-20T08:31:33;10.20;80.40
22089;DHT22;11211;52.728;9.230;2022-11-20T08:34:03;10.10;81.10
22089;DHT22;11211;52.728;9.230;2022-11-20T08:36:32;10.10;80.90
22089;DHT22;11211;52.728;9.230;2022-11-20T08:38:59;10.10;80.50
22089;DHT22;11211;52.728;9.230;2022-11-20T08:41:26;10.20;80.20
22089;DHT22;11211;52.728;9.230;2022-11-20T08:43:55;10.30;79.90
22089;DHT22;11211;52.728;9.230;2022-11-20T08:46:23;10.30;79.70
22089;DHT22;11211;52.728;9.230;2022-11-20T08:48:50;10.30;79.20
22089;DHT22;11211;52.728;9.230;2022-11-20T08:51:17;10.30;79.40
22089;DHT22;11211;52.728;9.230;2022-11-20T08:53:46;10.20;79.60
22089;DHT22;11211;52.728;9.230;2022-11-20T08:56:13;10.30;79.60
22089;DHT22;11211;52.728;9.230;2022-11-20T08:58:40;10.30;79.20
22089;DHT22;11211;52.728;9.230;2022-11-20T09:01:07;10.20;79.80
22089;DHT22;11211;52.728;9.230;2022-11-20T09:03:34;10.30;79.40
22089;DHT22;11211;52.728;9.230;2022-11-20T09:06:02;10.30;79.50
22089;DHT22;11211;52.728;9.230;2022-11-20T09:08:30;10.20;79.50
22089;DHT22;11211;52.728;9.230;2022-11-20T09:10:59;10.20;79.80
22089;DHT22;11211;52.728;9.230;2022-11-20T09:13:26;10.20;79.80
22089;DHT22;11211;52.728;9.230;2022-11-20T09:15:54;10.20;80.00
22089;DHT22;11211;52.728;9.230;2022-11-20T09:18:22;10.10;79.70
22089;DHT22;11211;52.728;9.230;2022-11-20T09:20:49;10.10;79.70
22089;DHT22;11211;52.728;9.230;2022-11-20T09:23:16;10.10;79.40
22089;DHT22;11211;52.728;9.230;2022-11-20T09:25:43;10.20;79.40
22089;DHT22;11211;52.728;9.230;2022-11-20T09:28:11;10.40;79.20
22089;DHT22;11211;52.728;9.230;2022-11-20T09:30:38;10.40;79.30
22089;DHT22;11211;52.728;9.230;2022-11-20T09:33:05;10.40;79.40
22089;DHT22;11211;52.728;9.230;2022-11-20T09:35:33;10.50;79.50
22089;DHT22;11211;52.728;9.230;2022-11-20T09:38:04;10.50;79.20
22089;DHT22;11211;52.728;9.230;2022-11-20T09:40:31;10.60;80.10
22089;DHT22;11211;52.728;9.230;2022-11-20T09:43:02;10.60;80.60
22089;DHT22;11211;52.728;9.230;2022-11-20T09:45:47;10.70;80.40
22089;DHT22;11211;52.728;9.230;2022-11-20T09:48:32;10.70;81.00
22089;DHT22;11211;52.728;9.230;2022-11-20T09:51:08;10.70;79.20
22089;DHT22;11211;52.728;9.230;2022-11-20T09:53:50;10.60;79.50
22089;DHT22;11211;52.728;9.230;2022-11-20T09:56:20;10.50;79.30
22089;DHT22;11211;52.728;9.230;2022-11-20T09:58:50;10.50;79.70
22089;DHT22;11211;52.728;9.230;2022-11-20T10:01:20;10.40;79.60
22089;DHT22;11211;52.728;9.230;2022-11-20T10:03:55;10.50;79.80
22089;DHT22;11211;52.728;9.230;2022-11-20T10:06:29;10.60;79.30
22089;DHT22;11211;52.728;9.230;2022-11-20T10:09:03;10.70;79.30
22089;DHT22;11211;52.728;9.230;2022-11-20T10:11:41;10.80;78.80
22089;DHT22;11211;52.728;9.230;2022-11-20T10:14:19;10.70;79.20
22089;DHT22;11211;52.728;9.230;2022-11-20T10:16:54;10.70;78.90
22089;DHT22;11211;52.728;9.230;2022-11-20T10:19:43;10.60;78.50
22089;DHT22;11211;52.728;9.230;2022-11-20T10:22:18;10.70;78.60
22089;DHT22;11211;52.728;9.230;2022-11-20T10:24:56;10.70;78.10
22089;DHT22;11211;52.728;9.230;2022-11-20T10:30:36;10.60;78.30
22089;DHT22;11211;52.728;9.230;2022-11-20T10:33:11;10.60;78.90
22089;DHT22;11211;52.728;9.230;2022-11-20T10:35:42;10.50;79.20
22089;DHT22;11211;52.728;9.230;2022-11-20T10:38:14;10.50;79.30
22089;DHT22;11211;52.728;9.230;2022-11-20T10:40:44;10.40;79.10
22089;DHT22;11211;52.728;9.230;2022-11-20T10:43:15;10.50;79.50
22089;DHT22;11211;52.728;9.230;2022-11-20T10:45:51;10.50;80.00
22089;DHT22;11211;52.728;9.230;2022-11-20T10:48:23;10.70;79.40
22089;DHT22;11211;52.728;9.230;2022-11-20T10:51:09;10.80;78.20
22089;DHT22;11211;52.728;9.230;2022-11-20T10:53:45;10.70;77.90
22089;DHT22;11211;52.728;9.230;2022-11-20T10:56:19;10.80;78.30
22089;DHT22;11211;52.728;9.230;2022-11-20T10:58:56;10.80;78.20
22089;DHT22;11211;52.728;9.230;2022-11-20T11:01:26;10.80;77.60
22089;DHT22;11211;52.728;9.230;2022-11-20T11:03:57;10.70;77.80
22089;DHT22;11211;52.728;9.230;2022-11-20T11:06:31;10.80;78.20
22089;DHT22;11211;52.728;9.230;2022-11-20T11:09:06;10.80;78.20
22089;DHT22;11211;52.728;9.230;2022-11-20T11:11:35;10.70;78.10
22089;DHT22;11211;52.728;9.230;2022-11-20T11:14:05;10.60;77.80
22089;DHT22;11211;52.728;9.230;2022-11-20T11:16:32;10.60;78.90
22089;DHT22;11211;52.728;9.230;2022-11-20T11:19:11;10.50;78.40
22089;DHT22;11211;52.728;9.230;2022-11-20T11:21:38;10.50;78.10
22089;DHT22;11211;52.728;9.230;2022-11-20T11:24:20;10.50;78.30
22089;DHT22;11211;52.728;9.230;2022-11-20T11:26:53;10.50;78.00
22089;DHT22;11211;52.728;9.230;2022-11-20T11:29:21;10.60;78.90
22089;DHT22;11211;52.728;9.230;2022-11-20T11:31:49;10.70;78.70
22089;DHT22;11211;52.728;9.230;2022-11-20T11:34:17;10.80;78.40
22089;DHT22;11211;52.728;9.230;2022-11-20T11:36:54;10.90;79.50
22089;DHT22;11211;52.728;9.230;2022-11-20T11:39:23;11.00;78.00
22089;DHT22;11211;52.728;9.230;2022-11-20T11:41:51;11.00;78.00
22089;DHT22;11211;52.728;9.230;2022-11-20T11:44:19;10.80;77.30
22089;DHT22;11211;52.728;9.230;2022-11-20T11:47:17;10.70;77.20
22089;DHT22;11211;52.728;9.230;2022-11-20T11:49:49;10.70;77.10
22089;DHT22;11211;52.728;9.230;2022-11-20T11:52:26;10.80;77.20
22089;DHT22;11211;52.728;9.230;2022-11-20T11:54:56;10.80;77.30
22089;DHT22;11211;52.728;9.230;2022-11-20T11:57:39;10.70;77.40
22089;DHT22;11211;52.728;9.230;2022-11-20T12:00:10;10.60;77.80
22089;DHT22;11211;52.728;9.230;2022-11-20T12:02:53;10.60;77.20
22089;DHT22;11211;52.728;9.230;2022-11-20T12:05:28;10.60;77.30
22089;DHT22;11211;52.728;9.230;2022-11-20T12:07:59;10.60;77.80
22089;DHT22;11211;52.728;9.230;2022-11-20T12:10:38;10.70;77.20
22089;DHT22;11211;52.728;9.230;2022-11-20T12:13:22;10.70;77.40
22089;DHT22;11211;52.728;9.230;2022-11-20T12:15:53;10.70;76.70
22089;DHT22;11211;52.728;9.230;2022-11-20T12:18:21;10.70;76.70
22089;DHT22;11211;52.728;9.230;2022-11-20T12:21:00;10.70;76.60
22089;DHT22;11211;52.728;9.230;2022-11-20T12:23:34;10.70;76.70
22089;DHT22;11211;52.728;9.230;2022-11-20T12:26:13;10.80;76.50
22089;DHT22;11211;52.728;9.230;2022-11-20T12:28:56;10.80;76.50
22089;DHT22;11211;52.728;9.230;2022-11-20T12:31:41;10.80;76.20
22089;DHT22;11211;52.728;9.230;2022-11-20T12:34:28;10.80;76.20
22089;DHT22;11211;52.728;9.230;2022-11-20T12:37:08;10.80;76.50
22089;DHT22;11211;52.728;9.230;2022-11-20T12:39:41;10.90;76.30
22089;DHT22;11211;52.728;9.230;2022-11-20T12:42:30;10.90;76.30
22089;DHT22;11211;52.728;9.230;2022-11-20T12:45:48;10.80;76.50
22089;DHT22;11211;52.728;9.230;2022-11-20T12:51:27;10.80;76.70
22089;DHT22;11211;52.728;9.230;2022-11-20T12:54:11;10.80;77.00
22089;DHT22;11211;52.728;9.230;2022-11-20T12:56:49;11.00;76.60
22089;DHT22;11211;52.728;9.230;2022-11-20T12:59:27;11.10;76.40
22089;DHT22;11211;52.728;9.230;2022-11-20T13:02:09;11.10;76.20
22089;DHT22;11211;52.728;9.230;2022-11-20T13:04:55;11.20;76.60
22089;DHT22;11211;52.728;9.230;2022-11-20T13:07:28;11.10;76.50
22089;DHT22;11211;52.728;9.230;2022-11-20T13:10:01;11.00;76.80
22089;DHT22;11211;52.728;9.230;2022-11-20T13:12:31;11.00;77.10
22089;DHT22;11211;52.728;9.230;2022-11-20T13:15:05;11.00;77.10
22089;DHT22;11211;52.728;9.230;2022-11-20T13:17:38;11.10;77.70
22089;DHT22;11211;52.728;9.230;2022-11-20T13:20:14;11.00;77.00
22089;DHT22;11211;52.728;9.230;2022-11-20T13:22:45;11.00;77.20
22089;DHT22;11211;52.728;9.230;2022-11-20T13:25:24;10.90;77.40
22089;DHT22;11211;52.728;9.230;2022-11-20T13:27:51;10.80;77.30
22089;DHT22;11211;52.728;9.230;2022-11-20T13:30:19;10.80;77.60
22089;DHT22;11211;52.728;9.230;2022-11-20T13:32:54;10.80;77.30
22089;DHT22;11211;52.728;9.230;2022-11-20T13:35:30;10.70;77.50
22089;DHT22;11211;52.728;9.230;2022-11-20T13:38:02;10.70;77.80
22089;DHT22;11211;52.728;9.230;2022-11-20T13:40:32;10.80;78.20
22089;DHT22;11211;52.728;9.230;2022-11-20T13:43:10;10.90;77.40
22089;DHT22;11211;52.728;9.230;2022-11-20T13:45:37;10.90;76.80
22089;DHT22;11211;52.728;9.230;2022-11-20T13:48:19;10.90;77.20
22089;DHT22;11211;52.728;9.230;2022-11-20T13:50:53;10.90;77.10
22089;DHT22;11211;52.728;9.230;2022-11-20T13:53:42;11.00;77.60
22089;DHT22;11211;52.728;9.230;2022-11-20T13:56:20;11.10;77.80
22089;DHT22;11211;52.728;9.230;2022-11-20T13:58:55;11.10;77.50
22089;DHT22;11211;52.728;9.230;2022-11-20T14:01:28;11.10;77.30
22089;DHT22;11211;52.728;9.230;2022-11-20T14:03:57;11.10;77.50
22089;DHT22;11211;52.728;9.230;2022-11-20T14:06:27;11.00;77.40
22089;DHT22;11211;52.728;9.230;2022-11-20T14:08:56;10.90;77.60
22089;DHT22;11211;52.728;9.230;2022-11-20T14:11:26;10.90;77.60
22089;DHT22;11211;52.728;9.230;2022-11-20T14:13:56;10.90;77.70
22089;DHT22;11211;52.728;9.230;2022-11-20T14:16:24;10.90;77.90
22089;DHT22;11211;52.728;9.230;2022-11-20T14:18:52;11.00;77.90
22089;DHT22;11211;52.728;9.230;2022-11-20T14:21:26;11.00;77.60
22089;DHT22;11211;52.728;9.230;2022-11-20T14:23:54;11.00;77.60
22089;DHT22;11211;52.728;9.230;2022-11-20T14:26:30;11.00;77.30
22089;DHT22;11211;52.728;9.230;2022-11-20T14:28:59;11.00;77.40
22089;DHT22;11211;52.728;9.230;2022-11-20T14:31:27;11.00;77.10
22089;DHT22;11211;52.728;9.230;2022-11-20T14:33:55;11.00;77.20
22089;DHT22;11211;52.728;9.230;2022-11-20T14:36:24;11.10;77.20
22089;DHT22;11211;52.728;9.230;2022-11-20T14:38:52;11.10;76.90
22089;DHT22;11211;52.728;9.230;2022-11-20T14:41:21;11.10;77.20
22089;DHT22;11211;52.728;9.230;2022-11-20T14:43:53;11.00;77.10
22089;DHT22;11211;52.728;9.230;2022-11-20T14:46:21;11.10;77.20
22089;DHT22;11211;52.728;9.230;2022-11-20T14:48:49;11.10;77.00
22089;DHT22;11211;52.728;9.230;2022-11-20T14:51:27;11.10;77.00
22089;DHT22;11211;52.728;9.230;2022-11-20T14:54:08;11.00;76.90
22089;DHT22;11211;52.728;9.230;2022-11-20T14:56:35;10.90;77.30
22089;DHT22;11211;52.728;9.230;2022-11-20T14:59:04;10.90;77.50
22089;DHT22;11211;52.728;9.230;2022-11-20T15:01:32;10.80;77.50
22089;DHT22;11211;52.728;9.230;2022-11-20T15:04:01;10.90;77.30
22089;DHT22;11211;52.728;9.230;2022-11-20T15:06:28;11.00;77.00
22089;DHT22;11211;52.728;9.230;2022-11-20T15:08:57;11.00;78.20
22089;DHT22;11211;52.728;9.230;2022-11-20T15:11:28;11.00;77.10
22089;DHT22;11211;52.728;9.230;2022-11-20T15:13:57;11.10;76.90
22089;DHT22;11211;52.728;9.230;2022-11-20T15:16:26;11.10;77.00
22089;DHT22;11211;52.728;9.230;2022-11-20T15:18:53;11.10;76.90
22089;DHT22;11211;52.728;9.230;2022-11-20T15:21:20;11.20;76.90
22089;DHT22;11211;52.728;9.230;2022-11-20T15:23:48;11.20;76.70
22089;DHT22;11211;52.728;9.230;2022-11-20T15:26:20;11.20;76.80
22089;DHT22;11211;52.728;9.230;2022-11-20T15:28:48;11.20;76.70
22089;DHT22;11211;52.728;9.230;2022-11-20T15:31:17;11.20;77.50
22089;DHT22;11211;52.728;9.230;2022-11-20T15:33:46;11.20;76.80
22089;DHT22;11211;52.728;9.230;2022-11-20T15:36:12;11.20;76.60
22089;DHT22;11211;52.728;9.230;2022-11-20T15:38:39;11.10;76.50
22089;DHT22;11211;52.728;9.230;2022-11-20T15:41:07;11.10;77.00
22089;DHT22;11211;52.728;9.230;2022-11-20T15:43:34;11.10;76.90
22089;DHT22;11211;52.728;9.230;2022-11-20T15:46:03;11.10;76.80
22089;DHT22;11211;52.728;9.230;2022-11-20T15:48:34;11.20;76.40
22089;DHT22;11211;52.728;9.230;2022-11-20T15:51:06;11.20;76.10
22089;DHT22;11211;52.728;9.230;2022-11-20T15:53:40;11.20;76.60
22089;DHT22;11211;52.728;9.230;2022-11-20T15:56:10;11.30;77.10
22089;DHT22;11211;52.728;9.230;2022-11-20T15:58:37;11.30;77.20